createdAt,value
2022-09-20T00:02:15.935Z,1.70
2022-09-20T00:05:01.129Z,1.70
2022-09-20T00:07:46.583Z,1.73
2022-09-20T00:10:36.041Z,1.50
2022-09-20T00:13:21.380Z,1.92
2022-09-20T00:16:12.580Z,1.73
2022-09-20T00:18:59.593Z,1.80
2022-09-20T00:21:44.592Z,1.58
2022-09-20T00:24:30.076Z,1.80
2022-09-20T00:27:15.274Z,1.35
2022-09-20T00:32:45.906Z,1.88
2022-09-20T00:35:31.117Z,1.42
2022-09-20T00:38:16.802Z,1.40
2022-09-20T00:41:02.176Z,1.40
2022-09-20T00:43:47.550Z,1.55
2022-09-20T00:46:39.300Z,1.65
2022-09-20T00:49:28.396Z,1.33
2022-09-20T00:52:14.598Z,1.50
2022-09-20T00:55:00.830Z,1.30
2022-09-20T00:57:47.018Z,1.35
2022-09-20T01:00:32.739Z,1.60
2022-09-20T01:03:22.731Z,1.85
2022-09-20T01:06:11.322Z,1.15
2022-09-20T01:09:02.462Z,1.70
2022-09-20T01:11:49.484Z,1.77
2022-09-20T01:14:35.209Z,1.60
2022-09-20T01:17:24.827Z,1.50
2022-09-20T01:20:28.500Z,1.50
2022-09-20T01:23:29.126Z,1.92
2022-09-20T01:26:29.439Z,1.30
2022-09-20T01:29:40.051Z,1.20
2022-09-20T01:32:41.961Z,1.50
2022-09-20T01:35:28.726Z,1.30
2022-09-20T01:38:27.397Z,1.30
2022-09-20T01:41:24.296Z,1.20
2022-09-20T01:44:14.218Z,1.25
2022-09-20T01:47:38.628Z,1.15
2022-09-20T01:50:30.264Z,1.08
2022-09-20T01:53:46.287Z,1.25
2022-09-20T01:56:54.474Z,1.30
2022-09-20T02:00:09.136Z,1.10
2022-09-20T02:03:12.407Z,0.90
2022-09-20T02:06:33.826Z,1.27
2022-09-20T02:09:44.131Z,1.00
2022-09-20T02:13:11.572Z,1.42
2022-09-20T02:16:06.308Z,1.20
2022-09-20T02:19:28.887Z,1.30
2022-09-20T02:22:53.078Z,1.25
2022-09-20T02:26:02.770Z,1.10
2022-09-20T02:28:49.377Z,1.13
2022-09-20T02:31:49.602Z,1.10
2022-09-20T02:34:45.910Z,1.13
2022-09-20T02:38:11.388Z,1.25
2022-09-20T02:40:56.670Z,1.20
2022-09-20T02:44:02.178Z,1.10
2022-09-20T02:47:15.045Z,1.17
2022-09-20T02:50:26.737Z,1.55
2022-09-20T02:53:27.436Z,1.20
2022-09-20T02:56:24.879Z,0.90
2022-09-20T02:59:32.321Z,1.10
2022-09-20T03:02:30.365Z,1.25
2022-09-20T03:05:25.045Z,1.02
2022-09-20T03:08:35.800Z,1.30
2022-09-20T03:11:36.015Z,1.15
2022-09-20T03:14:30.016Z,1.02
2022-09-20T03:17:42.390Z,1.20
2022-09-20T03:20:57.882Z,1.05
2022-09-20T03:24:24.947Z,1.25
2022-09-20T03:27:32.704Z,1.40
2022-09-20T03:30:46.319Z,1.27
2022-09-20T03:34:13.568Z,1.20
2022-09-20T03:37:21.818Z,1.23
2022-09-20T03:40:55.583Z,1.08
2022-09-20T03:43:44.015Z,1.13
2022-09-20T03:46:38.897Z,1.00
2022-09-20T03:49:55.693Z,1.40
2022-09-20T03:52:45.306Z,0.88
2022-09-20T03:55:49.282Z,1.42
2022-09-20T03:58:53.527Z,1.38
2022-09-20T04:01:45.274Z,1.30
2022-09-20T04:04:49.860Z,1.20
2022-09-20T04:07:59.285Z,1.20
2022-09-20T04:11:08.092Z,1.13
2022-09-20T04:14:11.238Z,1.33
2022-09-20T04:17:22.166Z,1.73
2022-09-20T04:20:21.258Z,1.30
2022-09-20T04:23:31.109Z,1.60
2022-09-20T04:26:24.561Z,1.40
2022-09-20T04:29:19.878Z,1.45
2022-09-20T04:32:33.635Z,1.80
2022-09-20T04:36:01.946Z,1.40
2022-09-20T04:38:56.678Z,1.55
2022-09-20T04:42:12.446Z,1.75
2022-09-20T04:45:10.373Z,1.63
2022-09-20T04:48:33.332Z,1.77
2022-09-20T04:52:10.187Z,1.80
2022-09-20T04:55:24.811Z,1.40
2022-09-20T04:58:19.181Z,1.50
2022-09-20T05:01:17.204Z,1.60
2022-09-20T05:04:31.563Z,1.90
2022-09-20T05:07:38.618Z,1.90
2022-09-20T05:11:11.238Z,1.63
2022-09-20T05:14:13.629Z,1.98
2022-09-20T05:17:30.893Z,1.98
2022-09-20T05:20:44.283Z,1.70
2022-09-20T05:24:09.468Z,2.20
2022-09-20T05:27:19.576Z,1.77
2022-09-20T05:30:12.778Z,1.92
2022-09-20T05:33:12.770Z,1.73
2022-09-20T05:39:03.456Z,1.70
2022-09-20T05:42:00.177Z,1.73
2022-09-20T05:44:58.011Z,1.40
2022-09-20T05:48:05.433Z,1.73
2022-09-20T05:51:16.446Z,1.65
2022-09-20T05:54:39.430Z,2.03
2022-09-20T05:57:56.393Z,1.67
2022-09-20T06:01:07.081Z,1.73
2022-09-20T06:04:01.348Z,1.60
2022-09-20T06:07:27.286Z,1.60
2022-09-20T06:10:57.364Z,1.60
2022-09-20T06:14:23.578Z,1.77
2022-09-20T06:17:18.854Z,1.95
2022-09-20T06:20:23.881Z,2.17
2022-09-20T06:23:10.046Z,2.35
2022-09-20T06:26:13.330Z,1.73
2022-09-20T06:29:04.529Z,1.90
2022-09-20T06:31:49.761Z,1.42
2022-09-20T06:34:35.453Z,1.42
2022-09-20T06:38:17.196Z,1.60
2022-09-20T06:41:22.316Z,1.65
2022-09-20T06:44:07.600Z,2.08
2022-09-20T06:46:54.306Z,1.55
2022-09-20T06:49:42.302Z,1.75
2022-09-20T06:52:28.100Z,1.60
2022-09-20T06:55:29.033Z,1.92
2022-09-20T06:58:14.870Z,2.13
2022-09-20T07:01:00.445Z,1.75
2022-09-20T07:03:45.966Z,2.20
2022-09-20T07:06:31.086Z,1.90
2022-09-20T07:09:17.112Z,2.10
2022-09-20T07:12:02.392Z,1.77
2022-09-20T07:14:47.743Z,1.90
2022-09-20T07:17:33.820Z,1.60
2022-09-20T07:20:21.438Z,2.15
2022-09-20T07:23:06.791Z,1.63
2022-09-20T07:25:52.434Z,2.03
2022-09-20T07:28:37.920Z,2.08
2022-09-20T07:31:25.525Z,1.85
2022-09-20T07:34:11.026Z,2.08
2022-09-20T07:36:59.863Z,2.00
2022-09-20T07:39:45.859Z,2.22
2022-09-20T07:42:31.918Z,2.30
2022-09-20T07:45:18.233Z,2.00
2022-09-20T07:48:05.276Z,1.83
2022-09-20T07:50:59.079Z,2.28
2022-09-20T07:53:44.195Z,1.77
2022-09-20T07:56:29.405Z,1.90
2022-09-20T07:59:15.158Z,2.20
2022-09-20T08:02:00.694Z,2.15
2022-09-20T08:04:49.799Z,1.83
2022-09-20T08:07:35.349Z,1.90
2022-09-20T08:10:20.561Z,1.83
2022-09-20T08:16:13.342Z,2.30
2022-09-20T08:19:00.948Z,2.20
2022-09-20T08:21:46.800Z,1.50
2022-09-20T08:24:32.951Z,1.50
2022-09-20T08:27:18.393Z,2.10
2022-09-20T08:30:04.156Z,1.77
2022-09-20T08:32:49.795Z,2.28
2022-09-20T08:35:38.168Z,2.10
2022-09-20T08:41:45.941Z,2.30
2022-09-20T08:44:35.391Z,2.43
2022-09-20T08:47:44.411Z,2.15
2022-09-20T08:50:29.931Z,3.00
2022-09-20T08:53:20.975Z,2.58
2022-09-20T08:56:07.289Z,3.47
2022-09-20T08:58:54.102Z,2.63
2022-09-20T09:01:39.704Z,2.05
2022-09-20T09:04:31.184Z,2.60
2022-09-20T09:07:21.684Z,2.33
2022-09-20T09:10:08.977Z,2.30
2022-09-20T09:12:54.691Z,3.08
2022-09-20T09:15:43.599Z,2.42
2022-09-20T09:18:35.435Z,2.38
2022-09-20T09:21:24.218Z,2.00
2022-09-20T09:24:19.316Z,2.43
2022-09-20T09:27:16.774Z,1.90
2022-09-20T09:30:02.394Z,2.22
2022-09-20T09:32:49.333Z,2.55
2022-09-20T09:35:35.970Z,2.72
2022-09-20T09:38:25.850Z,3.35
2022-09-20T09:41:26.181Z,2.60
2022-09-20T09:44:24.527Z,2.67
2022-09-20T09:47:27.554Z,4.30
2022-09-20T09:50:22.859Z,2.70
2022-09-20T09:53:15.202Z,3.10
2022-09-20T09:56:42.119Z,2.92
2022-09-20T09:59:40.362Z,3.15
2022-09-20T10:02:48.191Z,2.92
2022-09-20T10:05:44.207Z,2.85
2022-09-20T10:08:44.872Z,3.20
2022-09-20T10:11:37.535Z,3.28
2022-09-20T10:14:43.192Z,2.58
2022-09-20T10:18:00.936Z,3.53
2022-09-20T10:20:59.284Z,2.85
2022-09-20T10:24:03.678Z,2.85
2022-09-20T10:27:02.165Z,3.05
2022-09-20T10:30:00.308Z,3.10
2022-09-20T10:32:51.674Z,2.42
2022-09-20T10:36:03.729Z,3.13
2022-09-20T10:39:00.647Z,3.55
2022-09-20T10:42:19.068Z,2.90
2022-09-20T10:45:59.233Z,2.50
2022-09-20T10:48:51.608Z,3.35
2022-09-20T10:51:47.524Z,3.30
2022-09-20T10:54:47.956Z,3.13
2022-09-20T10:57:51.816Z,2.88
2022-09-20T11:01:11.822Z,2.45
2022-09-20T11:04:35.154Z,2.58
2022-09-20T11:07:37.768Z,3.08
2022-09-20T11:10:31.038Z,2.22
2022-09-20T11:13:48.564Z,3.08
2022-09-20T11:16:43.285Z,2.60
2022-09-20T11:19:48.611Z,2.17
2022-09-20T11:22:48.195Z,1.48
2022-09-20T11:28:40.103Z,2.13
2022-09-20T11:31:31.135Z,2.03
2022-09-20T11:34:25.729Z,1.63
2022-09-20T11:37:57.486Z,1.25
2022-09-20T11:40:53.589Z,1.50
2022-09-20T11:43:44.344Z,2.38
2022-09-20T11:46:40.081Z,2.42
2022-09-20T11:49:35.935Z,3.72
2022-09-20T11:52:52.893Z,3.90
2022-09-20T11:56:02.615Z,3.95
2022-09-20T11:58:51.003Z,4.30
2022-09-20T12:01:40.735Z,4.93
2022-09-20T12:04:33.935Z,5.90
2022-09-20T12:07:24.700Z,5.47
2022-09-20T12:10:30.421Z,6.32
2022-09-20T12:13:24.366Z,6.65
2022-09-20T12:16:29.693Z,7.40
2022-09-20T12:19:15.171Z,6.53
2022-09-20T12:22:00.368Z,6.90
2022-09-20T12:24:46.375Z,6.90
2022-09-20T12:27:32.576Z,7.72
2022-09-20T12:30:22.395Z,5.97
2022-09-20T12:33:20.677Z,6.25
2022-09-20T12:36:16.112Z,5.30
2022-09-20T12:39:17.595Z,5.43
2022-09-20T12:42:12.240Z,5.80
2022-09-20T12:45:00.024Z,2.92
2022-09-20T12:47:54.757Z,2.53
2022-09-20T12:50:58.614Z,2.60
2022-09-20T12:53:58.357Z,3.25
2022-09-20T12:59:33.123Z,3.30
2022-09-20T13:03:03.756Z,2.15
2022-09-20T13:06:08.858Z,2.00
2022-09-20T13:09:07.326Z,0.90
2022-09-20T13:12:01.195Z,0.70
2022-09-20T13:14:50.652Z,0.63
2022-09-20T13:17:37.181Z,0.88
2022-09-20T13:20:26.532Z,0.65
2022-09-20T13:23:23.456Z,0.90
2022-09-20T13:26:12.937Z,0.80
2022-09-20T13:28:59.156Z,0.88
2022-09-20T13:31:44.584Z,1.08
2022-09-20T13:34:29.814Z,1.10
2022-09-20T13:37:21.667Z,1.20
2022-09-20T13:40:07.132Z,0.90
2022-09-20T13:43:12.913Z,1.38
2022-09-20T13:46:06.995Z,1.15
2022-09-20T13:48:58.899Z,1.30
2022-09-20T13:51:44.373Z,1.70
2022-09-20T13:54:31.025Z,1.02
2022-09-20T13:57:22.542Z,1.17
2022-09-20T14:00:14.600Z,1.30
2022-09-20T14:03:00.335Z,1.02
2022-09-20T14:06:00.332Z,1.33
2022-09-20T14:08:51.142Z,0.90
2022-09-20T14:11:38.216Z,1.00
2022-09-20T14:14:24.501Z,1.10
2022-09-20T14:17:15.718Z,0.95
2022-09-20T14:20:01.897Z,1.38
2022-09-20T14:22:47.219Z,1.02
2022-09-20T14:25:34.452Z,1.35
2022-09-20T14:28:20.279Z,1.10
2022-09-20T14:31:08.699Z,1.38
2022-09-20T14:33:58.339Z,1.30
2022-09-20T14:36:44.598Z,1.63
2022-09-20T14:39:30.085Z,1.25
2022-09-20T14:42:25.517Z,1.33
2022-09-20T14:45:27.951Z,1.13
2022-09-20T14:48:16.262Z,1.08
2022-09-20T14:51:22.075Z,1.15
2022-09-20T14:54:07.936Z,1.20
2022-09-20T14:56:54.724Z,1.55
2022-09-20T14:59:43.479Z,1.45
2022-09-20T15:02:29.342Z,1.37
2022-09-20T15:05:23.925Z,1.05
2022-09-20T15:08:14.576Z,1.30
2022-09-20T15:11:00.118Z,1.23
2022-09-20T15:13:46.191Z,0.98
2022-09-20T15:16:31.946Z,0.98
2022-09-20T15:19:17.020Z,0.77
2022-09-20T15:22:02.652Z,1.00
2022-09-20T15:24:47.698Z,0.90
2022-09-20T15:27:33.663Z,0.98
2022-09-20T15:30:20.201Z,0.80
2022-09-20T15:33:05.645Z,1.17
2022-09-20T15:35:51.202Z,0.93
2022-09-20T15:38:36.535Z,0.98
2022-09-20T15:41:21.905Z,0.85
2022-09-20T15:44:08.084Z,0.70
2022-09-20T15:46:53.617Z,0.50
2022-09-20T15:49:39.110Z,0.80
2022-09-20T15:52:25.472Z,0.75
2022-09-20T15:55:11.976Z,0.70
2022-09-20T15:57:57.512Z,1.02
2022-09-20T16:00:45.125Z,1.20
2022-09-20T16:03:30.721Z,1.33
2022-09-20T16:06:16.159Z,1.00
2022-09-20T16:09:01.751Z,1.20
2022-09-20T16:11:48.154Z,1.25
2022-09-20T16:14:33.300Z,20.20
2022-09-20T16:17:18.860Z,4.28
2022-09-20T16:20:04.487Z,3.55
2022-09-20T16:22:49.542Z,2.28
2022-09-20T16:25:34.941Z,1.80
2022-09-20T16:28:20.430Z,3.75
2022-09-20T16:31:05.856Z,1.40
2022-09-20T16:33:51.019Z,1.40
2022-09-20T16:36:36.327Z,1.65
2022-09-20T16:39:27.576Z,2.53
2022-09-20T16:42:13.414Z,1.52
2022-09-20T16:44:58.701Z,2.70
2022-09-20T16:47:44.096Z,1.70
2022-09-20T16:50:29.799Z,1.80
2022-09-20T16:53:15.224Z,1.98
2022-09-20T16:56:04.204Z,1.45
2022-09-20T16:58:50.617Z,1.40
2022-09-20T17:01:37.018Z,1.65
2022-09-20T17:04:23.146Z,2.33
2022-09-20T17:07:08.610Z,2.30
2022-09-20T17:10:01.124Z,1.90
2022-09-20T17:12:47.832Z,3.30
2022-09-20T17:15:32.920Z,2.20
2022-09-20T17:18:20.536Z,2.45
2022-09-20T17:21:07.303Z,1.95
2022-09-20T17:23:57.514Z,2.13
2022-09-20T17:26:45.284Z,2.42
2022-09-20T17:29:30.607Z,2.35
2022-09-20T17:32:16.081Z,2.10
2022-09-20T17:35:01.444Z,3.05
2022-09-20T17:37:46.890Z,2.00
2022-09-20T17:40:32.162Z,2.10
2022-09-20T17:43:17.789Z,2.38
2022-09-20T17:46:10.113Z,2.30
2022-09-20T17:48:58.162Z,2.65
2022-09-20T17:51:48.044Z,3.13
2022-09-20T17:57:19.245Z,2.63
2022-09-20T18:00:04.840Z,2.38
2022-09-20T18:02:50.202Z,2.80
2022-09-20T18:05:35.302Z,2.45
2022-09-20T18:08:20.703Z,3.50
2022-09-20T18:11:06.120Z,3.90
2022-09-20T18:13:51.535Z,3.35
2022-09-20T18:16:37.507Z,3.40
2022-09-20T18:19:23.025Z,3.33
2022-09-20T18:22:08.475Z,2.95
2022-09-20T18:24:54.659Z,2.97
2022-09-20T18:27:40.101Z,3.13
2022-09-20T18:30:25.206Z,2.85
2022-09-20T18:33:10.895Z,3.10
2022-09-20T18:36:01.336Z,3.13
2022-09-20T18:38:46.843Z,3.47
2022-09-20T18:41:58.307Z,3.20
2022-09-20T18:45:24.173Z,2.70
2022-09-20T18:48:10.158Z,3.05
2022-09-20T18:53:50.409Z,2.90
2022-09-20T18:56:37.358Z,3.22
2022-09-20T18:59:25.216Z,2.95
2022-09-20T19:02:30.685Z,3.00
2022-09-20T19:05:33.107Z,3.03
2022-09-20T19:08:34.320Z,2.70
2022-09-20T19:11:43.722Z,2.65
2022-09-20T19:15:12.549Z,3.53
2022-09-20T19:17:58.009Z,3.47
2022-09-20T19:20:56.214Z,3.28
2022-09-20T19:23:45.534Z,2.95
2022-09-20T19:26:46.171Z,2.80
2022-09-20T19:29:33.202Z,2.58
2022-09-20T19:32:21.538Z,3.05
2022-09-20T19:35:17.296Z,2.90
2022-09-20T19:38:34.246Z,2.92
2022-09-20T19:41:39.500Z,2.83
2022-09-20T19:44:40.280Z,3.15
2022-09-20T19:48:00.237Z,2.30
2022-09-20T19:50:50.665Z,3.20
2022-09-20T19:53:36.708Z,2.90
2022-09-20T19:56:27.465Z,3.50
2022-09-20T19:59:13.332Z,2.28
2022-09-20T20:01:59.384Z,2.20
2022-09-20T20:04:44.961Z,2.33
2022-09-20T20:07:42.340Z,2.15
2022-09-20T20:10:59.083Z,2.08
2022-09-20T20:14:11.914Z,2.35
2022-09-20T20:17:44.192Z,3.05
2022-09-20T20:20:38.602Z,2.35
2022-09-20T20:23:47.856Z,1.90
2022-09-20T20:26:33.187Z,2.33
2022-09-20T20:29:18.557Z,2.10
2022-09-20T20:32:04.818Z,2.05
2022-09-20T20:34:50.120Z,2.35
2022-09-20T20:37:35.713Z,2.75
2022-09-20T20:40:21.494Z,2.35
2022-09-20T20:43:09.314Z,2.03
2022-09-20T20:45:54.787Z,2.75
2022-09-20T20:48:39.990Z,2.50
2022-09-20T20:51:27.135Z,2.20
2022-09-20T20:54:12.648Z,2.00
2022-09-20T20:56:58.585Z,2.80
2022-09-20T20:59:45.202Z,1.90
2022-09-20T21:02:30.657Z,2.20
2022-09-20T21:05:15.920Z,2.10
2022-09-20T21:08:02.424Z,1.98
2022-09-20T21:10:48.583Z,2.25
2022-09-20T21:13:35.505Z,2.17
2022-09-20T21:16:28.750Z,2.63
2022-09-20T21:19:15.623Z,2.75
2022-09-20T21:22:01.116Z,1.73
2022-09-20T21:24:47.035Z,2.15
2022-09-20T21:27:36.107Z,1.90
2022-09-20T21:30:21.409Z,1.60
2022-09-20T21:33:07.018Z,2.17
2022-09-20T21:35:52.315Z,2.10
2022-09-20T21:38:38.028Z,1.98
2022-09-20T21:41:29.230Z,2.20
2022-09-20T21:44:14.912Z,2.30
2022-09-20T21:47:00.327Z,2.33
2022-09-20T21:49:47.417Z,2.70
2022-09-20T21:52:34.176Z,2.38
2022-09-20T21:55:19.354Z,2.20
2022-09-20T21:58:04.913Z,2.28
2022-09-20T22:01:12.111Z,1.55
2022-09-20T22:04:01.381Z,2.20
2022-09-20T22:06:46.947Z,2.45
2022-09-20T22:09:32.038Z,2.45
2022-09-20T22:12:17.305Z,2.45
2022-09-20T22:15:02.562Z,2.13
2022-09-20T22:17:47.815Z,2.50
2022-09-20T22:20:33.305Z,2.63
2022-09-20T22:23:18.703Z,2.42
2022-09-20T22:26:15.923Z,2.47
2022-09-20T22:29:01.926Z,3.15
2022-09-20T22:31:49.929Z,2.90
2022-09-20T22:34:35.205Z,3.75
2022-09-20T22:37:20.463Z,4.38
2022-09-20T22:40:06.250Z,3.15
2022-09-20T22:42:51.717Z,3.75
2022-09-20T22:45:37.118Z,3.85
2022-09-20T22:48:22.635Z,3.10
2022-09-20T22:51:13.611Z,3.63
2022-09-20T22:53:59.070Z,2.88
2022-09-20T22:56:44.513Z,3.53
2022-09-20T22:59:29.918Z,3.28
2022-09-20T23:02:15.218Z,2.90
2022-09-20T23:05:00.298Z,3.42
2022-09-20T23:07:48.562Z,3.22
2022-09-20T23:10:33.855Z,3.67
2022-09-20T23:13:18.657Z,3.70
2022-09-20T23:16:15.839Z,3.63
2022-09-20T23:19:02.103Z,3.60
2022-09-20T23:21:47.477Z,3.10
2022-09-20T23:24:32.665Z,3.60
2022-09-20T23:27:18.622Z,3.35
2022-09-20T23:30:04.576Z,3.63
2022-09-20T23:32:50.331Z,3.90
2022-09-20T23:35:41.854Z,3.55
2022-09-20T23:38:27.276Z,3.20
2022-09-20T23:41:14.654Z,3.17
2022-09-20T23:43:59.865Z,3.20
2022-09-20T23:47:24.177Z,2.83
2022-09-20T23:50:09.698Z,2.92
2022-09-20T23:52:54.937Z,3.17
2022-09-20T23:55:40.356Z,2.90
2022-09-20T23:58:25.715Z,3.08
